createdAt,value
2022-08-30T00:00:02.737Z,7.90
2022-08-30T00:02:32.234Z,7.90
2022-08-30T00:05:01.786Z,7.30
2022-08-30T00:07:31.021Z,8.15
2022-08-30T00:10:00.334Z,8.43
2022-08-30T00:12:28.204Z,8.07
2022-08-30T00:14:56.492Z,8.80
2022-08-30T00:17:24.473Z,7.80
2022-08-30T00:19:52.453Z,8.25
2022-08-30T00:22:20.426Z,7.32
2022-08-30T00:24:49.589Z,8.55
2022-08-30T00:27:18.906Z,8.55
2022-08-30T00:29:47.185Z,7.82
2022-08-30T00:32:18.182Z,8.48
2022-08-30T00:34:46.300Z,9.13
2022-08-30T00:37:14.384Z,8.32
2022-08-30T00:39:42.284Z,7.57
2022-08-30T00:42:10.594Z,9.07
2022-08-30T00:44:40.089Z,9.15
2022-08-30T00:47:08.073Z,8.13
2022-08-30T00:49:37.331Z,8.32
2022-08-30T00:52:06.341Z,9.43
2022-08-30T00:54:35.156Z,8.93
2022-08-30T00:57:03.224Z,8.15
2022-08-30T00:59:31.437Z,8.25
2022-08-30T01:02:01.474Z,7.93
2022-08-30T01:04:30.027Z,8.55
2022-08-30T01:06:58.518Z,7.85
2022-08-30T01:09:26.421Z,8.35
2022-08-30T01:11:54.549Z,8.05
2022-08-30T01:14:25.789Z,7.95
2022-08-30T01:16:55.369Z,9.05
2022-08-30T01:19:31.504Z,9.52
2022-08-30T01:22:02.015Z,8.38
2022-08-30T01:24:31.672Z,9.07
2022-08-30T01:26:59.612Z,8.30
2022-08-30T01:29:28.411Z,9.10
2022-08-30T01:31:56.509Z,8.18
2022-08-30T01:34:25.276Z,9.00
2022-08-30T01:36:53.419Z,8.60
2022-08-30T01:39:21.887Z,8.10
2022-08-30T01:41:51.148Z,9.10
2022-08-30T01:44:19.098Z,8.48
2022-08-30T01:46:48.097Z,9.57
2022-08-30T01:49:16.893Z,8.45
2022-08-30T01:51:47.069Z,9.02
2022-08-30T01:54:15.109Z,8.35
2022-08-30T01:56:43.088Z,8.57
2022-08-30T01:59:12.377Z,9.32
2022-08-30T02:01:42.644Z,9.30
2022-08-30T02:04:11.905Z,8.25
2022-08-30T02:06:40.216Z,8.05
2022-08-30T02:09:08.620Z,9.10
2022-08-30T02:11:36.803Z,9.57
2022-08-30T02:14:04.932Z,8.88
2022-08-30T02:16:34.790Z,9.38
2022-08-30T02:19:02.966Z,9.07
2022-08-30T02:21:31.641Z,9.13
2022-08-30T02:23:59.744Z,9.98
2022-08-30T02:26:27.741Z,9.13
2022-08-30T02:28:55.756Z,9.25
2022-08-30T02:31:27.103Z,9.90
2022-08-30T02:33:56.464Z,10.43
2022-08-30T02:36:24.805Z,8.95
2022-08-30T02:38:53.103Z,8.15
2022-08-30T02:41:21.408Z,9.45
2022-08-30T02:43:49.590Z,9.68
2022-08-30T02:46:18.370Z,9.38
2022-08-30T02:48:46.341Z,9.45
2022-08-30T02:51:15.636Z,9.52
2022-08-30T02:53:44.136Z,10.75
2022-08-30T02:56:12.657Z,9.00
2022-08-30T02:58:42.538Z,9.68
2022-08-30T03:01:12.040Z,10.27
2022-08-30T03:03:40.229Z,10.23
2022-08-30T03:06:08.408Z,10.40
2022-08-30T03:08:38.306Z,10.00
2022-08-30T03:11:06.258Z,10.25
2022-08-30T03:13:34.146Z,10.15
2022-08-30T03:16:02.625Z,10.18
2022-08-30T03:18:30.648Z,10.18
2022-08-30T03:20:58.855Z,10.88
2022-08-30T03:23:26.806Z,10.57
2022-08-30T03:25:57.485Z,10.00
2022-08-30T03:28:25.380Z,11.27
2022-08-30T03:30:53.375Z,9.48
2022-08-30T03:33:21.983Z,9.88
2022-08-30T03:35:49.929Z,9.93
2022-08-30T03:38:18.268Z,10.30
2022-08-30T03:40:47.681Z,10.27
2022-08-30T03:43:17.117Z,9.45
2022-08-30T03:45:48.562Z,9.38
2022-08-30T03:48:16.724Z,9.77
2022-08-30T03:50:44.642Z,10.50
2022-08-30T03:53:12.910Z,10.32
2022-08-30T03:55:40.885Z,10.68
2022-08-30T03:58:09.972Z,10.75
2022-08-30T04:00:39.476Z,9.68
2022-08-30T04:03:07.381Z,11.50
2022-08-30T04:05:35.273Z,9.90
2022-08-30T04:08:03.246Z,10.32
2022-08-30T04:10:31.174Z,11.70
2022-08-30T04:13:01.694Z,9.68
2022-08-30T04:15:29.745Z,10.98
2022-08-30T04:17:59.018Z,12.45
2022-08-30T04:20:27.484Z,10.27
2022-08-30T04:22:55.527Z,10.85
2022-08-30T04:25:23.456Z,11.30
2022-08-30T04:27:51.318Z,11.80
2022-08-30T04:30:19.583Z,9.93
2022-08-30T04:32:47.478Z,10.98
2022-08-30T04:35:16.889Z,12.88
2022-08-30T04:37:44.849Z,11.63
2022-08-30T04:40:14.306Z,13.50
2022-08-30T04:42:44.084Z,10.95
2022-08-30T04:45:13.520Z,11.25
2022-08-30T04:47:41.569Z,12.23
2022-08-30T04:50:10.420Z,13.10
2022-08-30T04:52:40.129Z,10.85
2022-08-30T04:55:08.899Z,11.80
2022-08-30T04:57:36.753Z,12.38
2022-08-30T05:00:05.837Z,11.45
2022-08-30T05:02:33.815Z,12.05
2022-08-30T05:05:19.840Z,12.68
2022-08-30T05:07:49.083Z,10.90
2022-08-30T05:10:17.033Z,11.93
2022-08-30T05:12:45.087Z,12.75
2022-08-30T05:15:13.960Z,12.88
2022-08-30T05:17:42.363Z,12.77
2022-08-30T05:20:11.621Z,12.55
2022-08-30T05:22:50.035Z,12.20
2022-08-30T05:25:24.586Z,13.47
2022-08-30T05:27:52.592Z,12.30
2022-08-30T05:30:20.634Z,13.10
2022-08-30T05:32:48.653Z,12.23
2022-08-30T05:35:17.132Z,12.68
2022-08-30T05:37:45.157Z,12.63
2022-08-30T05:40:13.634Z,12.77
2022-08-30T05:42:42.984Z,14.43
2022-08-30T05:45:11.395Z,12.93
2022-08-30T05:47:39.874Z,12.98
2022-08-30T05:50:10.677Z,14.88
2022-08-30T05:52:39.092Z,12.80
2022-08-30T05:55:08.290Z,13.82
2022-08-30T05:57:36.666Z,15.98
2022-08-30T06:00:12.820Z,15.68
2022-08-30T06:02:40.981Z,14.45
2022-08-30T06:05:09.209Z,13.73
2022-08-30T06:07:37.204Z,14.20
2022-08-30T06:10:07.780Z,15.05
2022-08-30T06:12:36.103Z,13.82
2022-08-30T06:15:04.264Z,14.82
2022-08-30T06:17:33.589Z,15.20
2022-08-30T06:20:01.606Z,14.68
2022-08-30T06:22:31.210Z,14.68
2022-08-30T06:24:59.093Z,13.65
2022-08-30T06:27:27.270Z,15.10
2022-08-30T06:29:55.194Z,18.20
2022-08-30T06:32:23.126Z,13.75
2022-08-30T06:34:52.458Z,14.70
2022-08-30T06:37:29.311Z,13.77
2022-08-30T06:39:58.664Z,14.68
2022-08-30T06:42:32.188Z,14.00
2022-08-30T06:45:00.522Z,14.88
2022-08-30T06:47:28.919Z,15.30
2022-08-30T06:49:58.706Z,14.80
2022-08-30T06:52:26.748Z,15.65
2022-08-30T06:54:55.058Z,13.30
2022-08-30T06:57:23.074Z,13.45
2022-08-30T06:59:55.332Z,13.50
2022-08-30T07:02:25.248Z,15.68
2022-08-30T07:04:53.224Z,16.02
2022-08-30T07:07:23.688Z,15.18
2022-08-30T07:09:51.693Z,15.90
2022-08-30T07:12:19.643Z,14.48
2022-08-30T07:14:48.014Z,15.50
2022-08-30T07:17:35.137Z,13.75
2022-08-30T07:20:03.385Z,14.55
2022-08-30T07:22:33.581Z,14.77
2022-08-30T07:25:01.997Z,15.63
2022-08-30T07:27:31.765Z,14.43
2022-08-30T07:30:01.342Z,13.98
2022-08-30T07:32:29.230Z,13.43
2022-08-30T07:34:57.114Z,15.18
2022-08-30T07:37:25.528Z,13.52
2022-08-30T07:39:54.811Z,16.70
2022-08-30T07:42:24.423Z,15.68
2022-08-30T07:44:56.496Z,15.15
2022-08-30T07:47:24.727Z,14.63
2022-08-30T07:49:52.689Z,15.55
2022-08-30T07:52:20.559Z,16.40
2022-08-30T07:54:48.558Z,14.43
2022-08-30T07:57:22.409Z,16.33
2022-08-30T07:59:50.572Z,16.27
2022-08-30T08:02:18.987Z,15.38
2022-08-30T08:04:47.292Z,15.10
2022-08-30T08:07:15.416Z,14.40
2022-08-30T08:09:43.329Z,15.10
2022-08-30T08:12:11.586Z,14.95
2022-08-30T08:14:41.562Z,13.90
2022-08-30T08:17:09.483Z,14.30
2022-08-30T08:19:37.549Z,15.00
2022-08-30T08:22:20.018Z,14.50
2022-08-30T08:24:48.771Z,15.20
2022-08-30T08:27:16.796Z,13.98
2022-08-30T08:29:46.133Z,14.73
2022-08-30T08:32:14.185Z,14.27
2022-08-30T08:34:42.538Z,14.70
2022-08-30T08:37:10.429Z,13.95
2022-08-30T08:39:38.713Z,15.43
2022-08-30T08:42:09.216Z,15.05
2022-08-30T08:44:42.704Z,15.70
2022-08-30T08:47:15.566Z,14.90
2022-08-30T08:49:47.256Z,16.15
2022-08-30T08:52:37.265Z,14.65
2022-08-30T08:55:09.744Z,14.50
2022-08-30T08:57:41.445Z,16.00
2022-08-30T09:00:12.467Z,16.00
2022-08-30T09:02:44.730Z,15.55
2022-08-30T09:05:14.714Z,16.60
2022-08-30T09:07:45.157Z,15.48
2022-08-30T09:10:13.105Z,14.82
2022-08-30T09:12:41.077Z,15.25
2022-08-30T09:15:13.540Z,15.93
2022-08-30T09:17:54.828Z,14.38
2022-08-30T09:20:31.200Z,16.08
2022-08-30T09:22:59.713Z,14.38
2022-08-30T09:25:28.782Z,14.90
2022-08-30T09:27:57.279Z,15.32
2022-08-30T09:30:27.114Z,16.70
2022-08-30T09:33:00.272Z,16.20
2022-08-30T09:35:35.892Z,17.33
2022-08-30T09:38:07.837Z,18.67
2022-08-30T09:40:38.514Z,18.40
2022-08-30T09:43:08.584Z,18.85
2022-08-30T09:45:37.763Z,21.15
2022-08-30T09:48:23.437Z,21.48
2022-08-30T09:50:58.392Z,21.63
2022-08-30T09:53:29.466Z,21.20
2022-08-30T09:56:01.813Z,21.13
2022-08-30T09:58:37.208Z,20.52
2022-08-30T10:01:10.176Z,21.70
2022-08-30T10:03:42.176Z,22.80
2022-08-30T10:06:15.369Z,23.40
2022-08-30T10:08:49.585Z,23.48
2022-08-30T10:11:21.973Z,22.23
2022-08-30T10:14:05.314Z,22.77
2022-08-30T10:19:06.409Z,22.10
2022-08-30T10:21:40.110Z,21.38
2022-08-30T10:24:09.788Z,22.38
2022-08-30T10:26:39.475Z,22.38
2022-08-30T10:29:10.175Z,22.65
2022-08-30T10:31:41.835Z,20.88
2022-08-30T10:34:13.551Z,23.05
2022-08-30T10:36:45.360Z,22.42
2022-08-30T10:39:16.736Z,20.30
2022-08-30T10:41:50.496Z,22.90
2022-08-30T10:44:21.509Z,20.63
2022-08-30T10:47:03.618Z,23.15
2022-08-30T10:49:34.071Z,19.67
2022-08-30T10:52:14.494Z,23.27
2022-08-30T10:54:44.919Z,23.00
2022-08-30T10:57:12.876Z,22.95
2022-08-30T10:59:45.836Z,22.33
2022-08-30T11:02:28.980Z,22.20
2022-08-30T11:05:20.326Z,21.92
2022-08-30T11:07:52.755Z,21.50
2022-08-30T11:10:27.762Z,20.15
2022-08-30T11:12:59.517Z,20.15
2022-08-30T11:15:30.309Z,22.77
2022-08-30T11:18:01.384Z,21.58
2022-08-30T11:20:34.722Z,20.60
2022-08-30T11:23:36.277Z,20.27
2022-08-30T11:26:07.506Z,18.67
2022-08-30T11:28:54.234Z,19.80
2022-08-30T11:31:30.891Z,20.58
2022-08-30T11:34:01.025Z,19.85
2022-08-30T11:36:47.671Z,20.13
2022-08-30T11:39:37.458Z,20.25
2022-08-30T11:42:14.588Z,18.98
2022-08-30T11:44:42.561Z,20.98
2022-08-30T11:47:25.572Z,20.00
2022-08-30T11:49:58.947Z,18.80
2022-08-30T11:52:41.593Z,18.70
2022-08-30T11:55:18.125Z,17.13
2022-08-30T11:57:51.495Z,18.98
2022-08-30T12:00:31.516Z,17.77
2022-08-30T12:03:03.944Z,18.90
2022-08-30T12:05:52.125Z,16.67
2022-08-30T12:08:41.023Z,18.45
2022-08-30T12:11:31.450Z,16.92
2022-08-30T12:14:01.519Z,18.05
2022-08-30T12:16:37.082Z,16.98
2022-08-30T12:19:13.488Z,17.10
2022-08-30T12:21:45.181Z,15.95
2022-08-30T12:24:17.711Z,15.63
2022-08-30T12:26:47.141Z,15.75
2022-08-30T12:29:19.448Z,16.02
2022-08-30T12:31:48.851Z,16.40
2022-08-30T12:34:23.020Z,15.70
2022-08-30T12:36:58.578Z,18.08
2022-08-30T12:39:28.327Z,15.77
2022-08-30T12:41:56.979Z,15.38
2022-08-30T12:44:27.678Z,15.18
2022-08-30T12:46:59.736Z,15.88
2022-08-30T12:49:29.219Z,15.82
2022-08-30T12:51:58.814Z,14.77
2022-08-30T12:54:29.160Z,17.02
2022-08-30T12:57:19.062Z,15.60
2022-08-30T12:59:58.129Z,14.45
2022-08-30T13:02:43.520Z,15.90
2022-08-30T13:05:26.305Z,15.70
2022-08-30T13:08:08.957Z,13.93
2022-08-30T13:10:49.626Z,13.25
2022-08-30T13:13:28.138Z,15.02
2022-08-30T13:15:57.540Z,13.35
2022-08-30T13:18:31.400Z,13.85
2022-08-30T13:21:16.969Z,13.23
2022-08-30T13:23:45.001Z,14.32
2022-08-30T13:26:12.923Z,12.90
2022-08-30T13:28:44.718Z,14.10
2022-08-30T13:31:18.279Z,11.48
2022-08-30T13:33:47.084Z,11.77
2022-08-30T13:36:17.271Z,12.35
2022-08-30T13:38:51.233Z,10.55
2022-08-30T13:41:20.450Z,10.35
2022-08-30T13:46:40.222Z,9.55
2022-08-30T13:52:19.663Z,11.00
2022-08-30T13:54:49.985Z,10.30
2022-08-30T13:57:53.448Z,10.55
2022-08-30T14:00:09.749Z,10.75
2022-08-30T14:02:47.643Z,9.48
2022-08-30T14:05:46.716Z,9.38
2022-08-30T14:08:44.272Z,9.52
2022-08-30T14:10:56.821Z,9.73
2022-08-30T14:13:25.296Z,9.48
2022-08-30T14:18:45.602Z,9.00
2022-08-30T14:21:13.563Z,9.38
2022-08-30T14:23:41.746Z,9.45
2022-08-30T14:26:12.868Z,8.38
2022-08-30T14:28:42.167Z,8.70
2022-08-30T14:31:11.141Z,7.28
2022-08-30T14:33:39.143Z,7.40
2022-08-30T14:36:12.558Z,8.23
2022-08-30T14:38:43.698Z,10.07
2022-08-30T14:41:11.967Z,9.70
2022-08-30T14:43:44.284Z,8.93
2022-08-30T14:46:12.485Z,10.48
2022-08-30T14:48:43.026Z,8.55
2022-08-30T14:51:17.050Z,8.43
2022-08-30T14:53:45.521Z,7.82
2022-08-30T14:56:15.118Z,7.15
2022-08-30T14:58:43.440Z,7.63
2022-08-30T15:01:12.482Z,7.65
2022-08-30T15:03:41.179Z,9.70
2022-08-30T15:06:10.660Z,8.63
2022-08-30T15:08:40.463Z,9.25
2022-08-30T15:11:09.168Z,8.32
2022-08-30T15:13:37.370Z,9.73
2022-08-30T15:16:11.059Z,8.35
2022-08-30T15:18:39.549Z,9.13
2022-08-30T15:21:09.774Z,8.75
2022-08-30T15:23:37.980Z,10.80
2022-08-30T15:26:09.452Z,9.75
2022-08-30T15:28:39.750Z,10.40
2022-08-30T15:31:09.456Z,8.90
2022-08-30T15:33:37.727Z,9.38
2022-08-30T15:36:06.507Z,9.27
2022-08-30T15:38:34.561Z,9.35
2022-08-30T15:41:03.848Z,9.30
2022-08-30T15:43:33.851Z,8.60
2022-08-30T15:46:15.909Z,9.98
2022-08-30T15:48:45.799Z,8.30
2022-08-30T15:51:13.944Z,9.30
2022-08-30T15:53:42.195Z,8.00
2022-08-30T15:56:11.902Z,8.55
2022-08-30T15:58:41.207Z,9.85
2022-08-30T16:01:09.325Z,9.43
2022-08-30T16:03:40.466Z,14.32
2022-08-30T16:06:12.029Z,9.43
2022-08-30T16:08:40.127Z,8.98
2022-08-30T16:11:08.266Z,11.02
2022-08-30T16:13:36.646Z,10.45
2022-08-30T16:16:07.195Z,10.35
2022-08-30T16:18:36.120Z,9.55
2022-08-30T16:21:05.491Z,9.38
2022-08-30T16:23:33.705Z,9.18
2022-08-30T16:26:03.273Z,9.05
2022-08-30T16:28:32.722Z,10.40
2022-08-30T16:31:01.193Z,11.20
2022-08-30T16:33:31.595Z,10.68
2022-08-30T16:36:00.438Z,10.63
2022-08-30T16:38:28.953Z,11.48
2022-08-30T16:40:56.936Z,10.75
2022-08-30T16:43:24.994Z,12.25
2022-08-30T16:45:53.787Z,11.32
2022-08-30T16:48:21.941Z,10.35
2022-08-30T16:50:51.378Z,15.60
2022-08-30T16:53:19.483Z,14.02
2022-08-30T16:55:47.477Z,11.50
2022-08-30T16:58:19.201Z,12.30
2022-08-30T17:00:49.256Z,11.88
2022-08-30T17:03:17.512Z,11.55
2022-08-30T17:05:46.634Z,11.25
2022-08-30T17:08:16.237Z,12.60
2022-08-30T17:10:49.801Z,10.55
2022-08-30T17:13:18.185Z,11.52
2022-08-30T17:15:47.745Z,12.05
2022-08-30T17:18:16.415Z,30.13
2022-08-30T17:20:45.129Z,13.63
2022-08-30T17:23:13.255Z,12.07
2022-08-30T17:25:43.393Z,11.77
2022-08-30T17:28:11.588Z,11.48
2022-08-30T17:30:39.547Z,11.68
2022-08-30T17:33:08.464Z,11.48
2022-08-30T17:35:36.466Z,10.20
2022-08-30T17:38:04.511Z,12.25
2022-08-30T17:40:32.623Z,14.40
2022-08-30T17:43:02.058Z,11.38
2022-08-30T17:45:29.932Z,12.13
2022-08-30T17:48:02.470Z,12.25
2022-08-30T17:50:33.249Z,10.73
2022-08-30T17:53:01.574Z,11.88
2022-08-30T17:55:30.793Z,10.50
2022-08-30T17:58:00.539Z,10.70
2022-08-30T18:00:30.582Z,11.88
2022-08-30T18:02:59.444Z,11.55
2022-08-30T18:05:27.849Z,10.45
2022-08-30T18:07:55.890Z,10.38
2022-08-30T18:10:30.448Z,10.07
2022-08-30T18:13:11.321Z,10.50
2022-08-30T18:15:44.206Z,10.32
2022-08-30T18:18:12.761Z,11.40
2022-08-30T18:20:40.813Z,10.30
2022-08-30T18:23:08.795Z,11.27
2022-08-30T18:25:37.320Z,11.93
2022-08-30T18:28:05.961Z,10.57
2022-08-30T18:30:41.567Z,10.50
2022-08-30T18:33:11.869Z,12.80
2022-08-30T18:35:47.491Z,10.73
2022-08-30T18:38:16.860Z,10.85
2022-08-30T18:40:46.375Z,11.18
2022-08-30T18:43:15.799Z,10.68
2022-08-30T18:45:46.387Z,12.07
2022-08-30T18:48:18.624Z,10.25
2022-08-30T18:50:47.938Z,10.35
2022-08-30T19:05:16.475Z,11.27
2022-08-30T19:07:45.073Z,10.35
2022-08-30T19:10:14.344Z,11.80
2022-08-30T19:12:42.442Z,11.40
2022-08-30T19:15:11.692Z,12.70
2022-08-30T19:17:40.196Z,10.30
2022-08-30T19:20:10.026Z,9.63
2022-08-30T19:23:08.466Z,11.00
2022-08-30T19:25:27.765Z,10.38
2022-08-30T19:27:56.980Z,9.95
2022-08-30T19:30:29.609Z,10.27
2022-08-30T19:32:58.205Z,11.50
2022-08-30T19:35:26.496Z,10.20
2022-08-30T19:37:59.691Z,12.10
2022-08-30T19:40:27.809Z,10.63
2022-08-30T19:42:55.728Z,11.48
2022-08-30T19:45:24.050Z,12.18
2022-08-30T19:47:53.360Z,10.45
2022-08-30T19:50:22.013Z,11.32
2022-08-30T19:52:54.161Z,11.90
2022-08-30T19:55:28.402Z,12.80
2022-08-30T19:57:57.885Z,10.80
2022-08-30T20:00:26.270Z,11.15
2022-08-30T20:02:54.222Z,11.27
2022-08-30T20:05:23.927Z,11.23
2022-08-30T20:07:52.121Z,11.10
2022-08-30T20:10:20.836Z,11.95
2022-08-30T20:12:55.832Z,12.10
2022-08-30T20:15:25.036Z,12.02
2022-08-30T20:18:05.280Z,10.68
2022-08-30T20:20:36.272Z,11.95
2022-08-30T20:23:04.910Z,11.32
2022-08-30T20:25:32.920Z,11.95
2022-08-30T20:28:03.169Z,12.77
2022-08-30T20:30:31.137Z,11.65
2022-08-30T20:33:00.727Z,9.73
2022-08-30T20:35:30.671Z,11.43
2022-08-30T20:38:02.612Z,13.02
2022-08-30T20:40:30.763Z,11.80
2022-08-30T20:42:58.731Z,13.10
2022-08-30T20:45:30.711Z,12.02
2022-08-30T20:47:58.945Z,13.00
2022-08-30T20:50:27.039Z,12.18
2022-08-30T20:52:54.948Z,12.65
2022-08-30T20:55:22.982Z,12.50
2022-08-30T20:57:50.893Z,13.52
2022-08-30T21:00:19.419Z,12.65
2022-08-30T21:02:48.836Z,13.52
2022-08-30T21:05:17.626Z,12.70
2022-08-30T21:07:46.867Z,12.70
2022-08-30T21:10:21.215Z,13.65
2022-08-30T21:12:51.112Z,13.20
2022-08-30T21:15:37.806Z,12.32
2022-08-30T21:18:07.541Z,13.10
2022-08-30T21:20:36.253Z,13.65
2022-08-30T21:23:04.265Z,12.65
2022-08-30T21:25:34.205Z,13.07
2022-08-30T21:28:02.389Z,13.98
2022-08-30T21:30:30.331Z,11.55
2022-08-30T21:33:00.083Z,13.27
2022-08-30T21:35:47.091Z,13.40
2022-08-30T21:38:15.174Z,11.85
2022-08-30T21:40:43.538Z,13.07
2022-08-30T21:43:12.004Z,13.52
2022-08-30T21:45:40.092Z,13.05
2022-08-30T21:48:08.624Z,13.55
2022-08-30T21:50:39.177Z,12.57
2022-08-30T21:53:07.122Z,13.70
2022-08-30T21:55:35.134Z,13.38
2022-08-30T21:58:03.594Z,12.43
2022-08-30T22:00:31.895Z,14.27
2022-08-30T22:02:59.851Z,14.18
2022-08-30T22:05:27.903Z,13.48
2022-08-30T22:07:57.229Z,13.07
2022-08-30T22:10:25.377Z,13.52
2022-08-30T22:12:54.191Z,12.25
2022-08-30T22:15:22.853Z,12.82
2022-08-30T22:17:55.153Z,13.30
2022-08-30T22:20:23.092Z,12.32
2022-08-30T22:22:51.924Z,12.90
2022-08-30T22:25:21.328Z,13.25
2022-08-30T22:27:49.294Z,12.93
2022-08-30T22:30:17.810Z,13.13
2022-08-30T22:32:45.816Z,13.02
2022-08-30T22:35:13.747Z,13.32
2022-08-30T22:37:53.384Z,13.10
2022-08-30T22:40:23.227Z,12.98
2022-08-30T22:42:51.268Z,13.05
2022-08-30T22:45:19.702Z,12.18
2022-08-30T22:47:47.939Z,12.95
2022-08-30T22:50:16.002Z,12.52
2022-08-30T22:52:44.148Z,11.95
2022-08-30T22:55:13.650Z,12.85
2022-08-30T22:57:43.445Z,12.10
2022-08-30T23:00:15.110Z,11.90
2022-08-30T23:02:43.714Z,12.33
2022-08-30T23:05:12.274Z,11.82
2022-08-30T23:07:40.278Z,12.27
2022-08-30T23:10:08.759Z,12.98
2022-08-30T23:12:38.270Z,12.85
2022-08-30T23:15:09.313Z,11.13
2022-08-30T23:17:38.693Z,11.70
2022-08-30T23:20:09.157Z,10.75
2022-08-30T23:22:37.124Z,11.98
2022-08-30T23:25:23.070Z,10.52
2022-08-30T23:28:10.822Z,10.82
2022-08-30T23:30:57.289Z,9.73
2022-08-30T23:33:42.313Z,10.68
2022-08-30T23:36:28.197Z,10.88
2022-08-30T23:39:13.841Z,10.55
2022-08-30T23:41:59.289Z,11.38
2022-08-30T23:44:44.832Z,10.90
2022-08-30T23:47:31.810Z,10.95
2022-08-30T23:50:17.403Z,10.93
2022-08-30T23:53:03.079Z,12.80
2022-08-30T23:55:48.694Z,10.15
2022-08-30T23:58:35.535Z,9.88
